sensor_id;sensor_type;location;lat;lon;timestamp;temperature;humidity
18513;DHT22;9385;48.380;9.744;2022-12-20T00:00:53;1.90;99.90
18513;DHT22;9385;48.380;9.744;2022-12-20T00:03:21;1.90;99.90
18513;DHT22;9385;48.380;9.744;2022-12-20T00:05:48;1.90;99.90
18513;DHT22;9385;48.380;9.744;2022-12-20T00:08:15;1.80;99.90
18513;DHT22;9385;48.380;9.744;2022-12-20T00:10:43;1.80;99.90
18513;DHT22;9385;48.380;9.744;2022-12-20T00:13:11;1.80;99.90
18513;DHT22;9385;48.380;9.744;2022-12-20T00:15:38;1.90;99.90
18513;DHT22;9385;48.380;9.744;2022-12-20T00:18:05;2.00;99.90
18513;DHT22;9385;48.380;9.744;2022-12-20T00:20:33;1.90;99.90
18513;DHT22;9385;48.380;9.744;2022-12-20T00:23:01;1.90;99.90
18513;DHT22;9385;48.380;9.744;2022-12-20T00:25:28;1.90;99.90
18513;DHT22;9385;48.380;9.744;2022-12-20T00:27:54;1.90;99.90
18513;DHT22;9385;48.380;9.744;2022-12-20T00:30:21;1.80;99.90
18513;DHT22;9385;48.380;9.744;2022-12-20T00:32:48;1.80;99.90
18513;DHT22;9385;48.380;9.744;2022-12-20T00:35:15;1.80;99.90
18513;DHT22;9385;48.380;9.744;2022-12-20T00:37:43;1.70;99.90
18513;DHT22;9385;48.380;9.744;2022-12-20T00:40:10;1.60;99.90
18513;DHT22;9385;48.380;9.744;2022-12-20T00:42:37;1.60;99.90
18513;DHT22;9385;48.380;9.744;2022-12-20T00:45:04;1.70;99.90
18513;DHT22;9385;48.380;9.744;2022-12-20T00:47:31;1.60;99.90
18513;DHT22;9385;48.380;9.744;2022-12-20T00:49:58;1.60;99.90
18513;DHT22;9385;48.380;9.744;2022-12-20T00:52:24;1.50;99.90
18513;DHT22;9385;48.380;9.744;2022-12-20T00:54:52;1.50;99.90
18513;DHT22;9385;48.380;9.744;2022-12-20T00:57:19;1.30;99.90
18513;DHT22;9385;48.380;9.744;2022-12-20T00:59:46;1.40;99.90
18513;DHT22;9385;48.380;9.744;2022-12-20T01:02:13;1.50;99.90
18513;DHT22;9385;48.380;9.744;2022-12-20T01:04:40;1.60;99.90
18513;DHT22;9385;48.380;9.744;2022-12-20T01:07:06;1.50;99.90
18513;DHT22;9385;48.380;9.744;2022-12-20T01:09:34;1.50;99.90
18513;DHT22;9385;48.380;9.744;2022-12-20T01:12:02;1.50;99.90
18513;DHT22;9385;48.380;9.744;2022-12-20T01:14:29;1.50;99.90
18513;DHT22;9385;48.380;9.744;2022-12-20T01:16:56;1.50;99.90
18513;DHT22;9385;48.380;9.744;2022-12-20T01:19:22;1.40;99.90
18513;DHT22;9385;48.380;9.744;2022-12-20T01:21:49;1.30;99.90
18513;DHT22;9385;48.380;9.744;2022-12-20T01:24:17;1.20;99.90
18513;DHT22;9385;48.380;9.744;2022-12-20T01:26:45;1.20;99.90
18513;DHT22;9385;48.380;9.744;2022-12-20T01:29:14;1.20;99.90
18513;DHT22;9385;48.380;9.744;2022-12-20T01:31:42;1.10;99.90
18513;DHT22;9385;48.380;9.744;2022-12-20T01:34:08;1.00;99.90
18513;DHT22;9385;48.380;9.744;2022-12-20T01:36:36;0.90;99.90
18513;DHT22;9385;48.380;9.744;2022-12-20T01:39:05;0.80;99.90
18513;DHT22;9385;48.380;9.744;2022-12-20T01:41:33;0.80;99.90
18513;DHT22;9385;48.380;9.744;2022-12-20T01:44:03;0.70;99.90
18513;DHT22;9385;48.380;9.744;2022-12-20T01:46:33;0.60;99.90
18513;DHT22;9385;48.380;9.744;2022-12-20T01:49:04;0.60;99.90
18513;DHT22;9385;48.380;9.744;2022-12-20T01:51:35;0.70;99.90
18513;DHT22;9385;48.380;9.744;2022-12-20T01:54:06;0.80;99.90
18513;DHT22;9385;48.380;9.744;2022-12-20T01:56:35;0.80;99.90
18513;DHT22;9385;48.380;9.744;2022-12-20T01:59:03;0.80;99.90
18513;DHT22;9385;48.380;9.744;2022-12-20T02:01:32;0.70;99.90
18513;DHT22;9385;48.380;9.744;2022-12-20T02:04:00;0.70;99.90
18513;DHT22;9385;48.380;9.744;2022-12-20T02:06:28;0.70;99.90
18513;DHT22;9385;48.380;9.744;2022-12-20T02:08:57;0.60;99.90
18513;DHT22;9385;48.380;9.744;2022-12-20T02:11:48;0.60;99.90
18513;DHT22;9385;48.380;9.744;2022-12-20T02:14:31;0.50;99.90
18513;DHT22;9385;48.380;9.744;2022-12-20T02:17:07;0.50;99.90
18513;DHT22;9385;48.380;9.744;2022-12-20T02:20:05;0.50;99.90
18513;DHT22;9385;48.380;9.744;2022-12-20T02:22:48;0.50;99.90
18513;DHT22;9385;48.380;9.744;2022-12-20T02:25:41;0.70;99.90
18513;DHT22;9385;48.380;9.744;2022-12-20T02:28:17;0.80;99.90
18513;DHT22;9385;48.380;9.744;2022-12-20T02:30:48;0.80;99.90
18513;DHT22;9385;48.380;9.744;2022-12-20T02:33:18;0.90;99.90
18513;DHT22;9385;48.380;9.744;2022-12-20T02:35:46;1.00;99.90
18513;DHT22;9385;48.380;9.744;2022-12-20T02:38:25;1.10;99.90
18513;DHT22;9385;48.380;9.744;2022-12-20T02:40:57;1.20;99.90
18513;DHT22;9385;48.380;9.744;2022-12-20T02:43:26;1.20;99.90
18513;DHT22;9385;48.380;9.744;2022-12-20T02:46:14;1.20;99.90
18513;DHT22;9385;48.380;9.744;2022-12-20T02:48:41;1.20;99.90
18513;DHT22;9385;48.380;9.744;2022-12-20T02:51:09;1.20;99.90
18513;DHT22;9385;48.380;9.744;2022-12-20T02:53:37;1.20;99.90
18513;DHT22;9385;48.380;9.744;2022-12-20T02:56:10;1.20;99.90
18513;DHT22;9385;48.380;9.744;2022-12-20T02:58:44;1.20;99.90
18513;DHT22;9385;48.380;9.744;2022-12-20T03:01:20;1.20;99.90
18513;DHT22;9385;48.380;9.744;2022-12-20T03:03:47;1.20;99.90
18513;DHT22;9385;48.380;9.744;2022-12-20T03:06:14;1.10;99.90
18513;DHT22;9385;48.380;9.744;2022-12-20T03:08:44;1.10;99.90
18513;DHT22;9385;48.380;9.744;2022-12-20T03:11:12;1.10;99.90
18513;DHT22;9385;48.380;9.744;2022-12-20T03:13:39;1.10;99.90
18513;DHT22;9385;48.380;9.744;2022-12-20T03:16:06;1.00;99.90
18513;DHT22;9385;48.380;9.744;2022-12-20T03:18:35;1.00;99.90
18513;DHT22;9385;48.380;9.744;2022-12-20T03:21:02;1.00;99.90
18513;DHT22;9385;48.380;9.744;2022-12-20T03:23:29;1.10;99.90
18513;DHT22;9385;48.380;9.744;2022-12-20T03:25:55;1.10;99.90
18513;DHT22;9385;48.380;9.744;2022-12-20T03:28:22;1.10;99.90
18513;DHT22;9385;48.380;9.744;2022-12-20T03:30:49;1.10;99.90
18513;DHT22;9385;48.380;9.744;2022-12-20T03:33:16;1.20;99.90
18513;DHT22;9385;48.380;9.744;2022-12-20T03:35:44;1.20;99.90
18513;DHT22;9385;48.380;9.744;2022-12-20T03:38:12;1.20;99.90
18513;DHT22;9385;48.380;9.744;2022-12-20T03:40:39;1.20;99.90
18513;DHT22;9385;48.380;9.744;2022-12-20T03:43:06;1.20;99.90
18513;DHT22;9385;48.380;9.744;2022-12-20T03:45:33;1.10;99.90
18513;DHT22;9385;48.380;9.744;2022-12-20T03:47:59;1.10;99.90
18513;DHT22;9385;48.380;9.744;2022-12-20T03:50:26;1.10;99.90
18513;DHT22;9385;48.380;9.744;2022-12-20T03:52:55;1.10;99.90
18513;DHT22;9385;48.380;9.744;2022-12-20T03:55:21;1.20;99.90
18513;DHT22;9385;48.380;9.744;2022-12-20T03:57:48;1.10;99.90
18513;DHT22;9385;48.380;9.744;2022-12-20T04:00:16;1.20;99.90
18513;DHT22;9385;48.380;9.744;2022-12-20T04:02:43;1.20;99.90
18513;DHT22;9385;48.380;9.744;2022-12-20T04:05:10;1.30;99.90
18513;DHT22;9385;48.380;9.744;2022-12-20T04:07:37;1.40;99.90
18513;DHT22;9385;48.380;9.744;2022-12-20T04:10:07;1.40;99.90
18513;DHT22;9385;48.380;9.744;2022-12-20T04:12:34;1.40;99.90
18513;DHT22;9385;48.380;9.744;2022-12-20T04:15:01;1.40;99.90
18513;DHT22;9385;48.380;9.744;2022-12-20T04:17:28;1.50;99.90
18513;DHT22;9385;48.380;9.744;2022-12-20T04:19:54;1.40;99.90
18513;DHT22;9385;48.380;9.744;2022-12-20T04:22:21;1.50;99.90
18513;DHT22;9385;48.380;9.744;2022-12-20T04:24:48;1.50;99.90
18513;DHT22;9385;48.380;9.744;2022-12-20T04:27:16;1.50;99.90
18513;DHT22;9385;48.380;9.744;2022-12-20T04:29:43;1.50;99.90
18513;DHT22;9385;48.380;9.744;2022-12-20T04:32:09;1.40;99.90
18513;DHT22;9385;48.380;9.744;2022-12-20T04:34:36;1.30;99.90
18513;DHT22;9385;48.380;9.744;2022-12-20T04:37:03;1.20;99.90
18513;DHT22;9385;48.380;9.744;2022-12-20T04:39:29;1.10;99.90
18513;DHT22;9385;48.380;9.744;2022-12-20T04:41:56;0.90;99.90
18513;DHT22;9385;48.380;9.744;2022-12-20T04:44:24;0.90;99.90
18513;DHT22;9385;48.380;9.744;2022-12-20T04:46:51;0.90;99.90
18513;DHT22;9385;48.380;9.744;2022-12-20T04:49:18;0.90;99.90
18513;DHT22;9385;48.380;9.744;2022-12-20T04:51:45;1.00;99.90
18513;DHT22;9385;48.380;9.744;2022-12-20T04:54:11;1.00;99.90
18513;DHT22;9385;48.380;9.744;2022-12-20T04:56:37;1.10;99.90
18513;DHT22;9385;48.380;9.744;2022-12-20T04:59:04;1.20;99.90
18513;DHT22;9385;48.380;9.744;2022-12-20T05:01:32;1.20;99.90
18513;DHT22;9385;48.380;9.744;2022-12-20T05:03:59;1.20;99.90
18513;DHT22;9385;48.380;9.744;2022-12-20T05:06:26;1.30;99.90
18513;DHT22;9385;48.380;9.744;2022-12-20T05:08:53;1.30;99.90
18513;DHT22;9385;48.380;9.744;2022-12-20T05:11:20;1.30;99.90
18513;DHT22;9385;48.380;9.744;2022-12-20T05:13:47;1.40;99.90
18513;DHT22;9385;48.380;9.744;2022-12-20T05:16:13;1.50;99.90
18513;DHT22;9385;48.380;9.744;2022-12-20T05:18:42;1.40;99.90
18513;DHT22;9385;48.380;9.744;2022-12-20T05:21:09;1.40;99.90
18513;DHT22;9385;48.380;9.744;2022-12-20T05:23:53;1.40;99.90
18513;DHT22;9385;48.380;9.744;2022-12-20T05:26:37;1.50;99.90
18513;DHT22;9385;48.380;9.744;2022-12-20T05:29:05;1.50;99.90
18513;DHT22;9385;48.380;9.744;2022-12-20T05:31:32;1.60;99.90
18513;DHT22;9385;48.380;9.744;2022-12-20T05:34:00;1.60;99.90
18513;DHT22;9385;48.380;9.744;2022-12-20T05:36:27;1.60;99.90
18513;DHT22;9385;48.380;9.744;2022-12-20T05:38:55;1.60;99.90
18513;DHT22;9385;48.380;9.744;2022-12-20T05:41:21;1.60;99.90
18513;DHT22;9385;48.380;9.744;2022-12-20T05:43:48;1.60;99.90
18513;DHT22;9385;48.380;9.744;2022-12-20T05:46:15;1.50;99.90
18513;DHT22;9385;48.380;9.744;2022-12-20T05:48:42;1.50;99.90
18513;DHT22;9385;48.380;9.744;2022-12-20T05:51:10;1.50;99.90
18513;DHT22;9385;48.380;9.744;2022-12-20T05:53:37;1.30;99.90
18513;DHT22;9385;48.380;9.744;2022-12-20T05:56:04;1.30;99.90
18513;DHT22;9385;48.380;9.744;2022-12-20T05:58:31;1.40;99.90
18513;DHT22;9385;48.380;9.744;2022-12-20T06:00:59;1.40;99.90
18513;DHT22;9385;48.380;9.744;2022-12-20T06:03:27;1.40;99.90
18513;DHT22;9385;48.380;9.744;2022-12-20T06:05:53;1.40;99.90
18513;DHT22;9385;48.380;9.744;2022-12-20T06:08:22;1.50;99.90
18513;DHT22;9385;48.380;9.744;2022-12-20T06:10:49;1.50;99.90
18513;DHT22;9385;48.380;9.744;2022-12-20T06:13:16;1.40;99.90
18513;DHT22;9385;48.380;9.744;2022-12-20T06:15:43;1.40;99.90
18513;DHT22;9385;48.380;9.744;2022-12-20T06:18:10;1.40;99.90
18513;DHT22;9385;48.380;9.744;2022-12-20T06:20:37;1.40;99.90
18513;DHT22;9385;48.380;9.744;2022-12-20T06:23:04;1.40;99.90
18513;DHT22;9385;48.380;9.744;2022-12-20T06:25:33;1.30;99.90
18513;DHT22;9385;48.380;9.744;2022-12-20T06:28:00;1.20;99.90
18513;DHT22;9385;48.380;9.744;2022-12-20T06:30:26;1.20;99.90
18513;DHT22;9385;48.380;9.744;2022-12-20T06:32:53;1.30;99.90
18513;DHT22;9385;48.380;9.744;2022-12-20T06:35:20;1.20;99.90
18513;DHT22;9385;48.380;9.744;2022-12-20T06:37:47;1.20;99.90
18513;DHT22;9385;48.380;9.744;2022-12-20T06:40:14;1.10;99.90
18513;DHT22;9385;48.380;9.744;2022-12-20T06:42:42;1.10;99.90
18513;DHT22;9385;48.380;9.744;2022-12-20T06:45:10;1.20;99.90
18513;DHT22;9385;48.380;9.744;2022-12-20T06:47:36;1.20;99.90
18513;DHT22;9385;48.380;9.744;2022-12-20T06:50:04;1.30;99.90
18513;DHT22;9385;48.380;9.744;2022-12-20T06:52:31;1.40;99.90
18513;DHT22;9385;48.380;9.744;2022-12-20T06:54:58;1.40;99.90
18513;DHT22;9385;48.380;9.744;2022-12-20T06:57:25;1.50;99.90
18513;DHT22;9385;48.380;9.744;2022-12-20T06:59:53;1.60;99.90
18513;DHT22;9385;48.380;9.744;2022-12-20T07:02:20;1.60;99.90
18513;DHT22;9385;48.380;9.744;2022-12-20T07:04:46;1.60;99.90
18513;DHT22;9385;48.380;9.744;2022-12-20T07:07:13;1.70;99.90
18513;DHT22;9385;48.380;9.744;2022-12-20T07:09:41;1.80;99.90
18513;DHT22;9385;48.380;9.744;2022-12-20T07:12:09;1.80;99.90
18513;DHT22;9385;48.380;9.744;2022-12-20T07:14:36;1.80;99.90
18513;DHT22;9385;48.380;9.744;2022-12-20T07:17:04;1.90;99.90
18513;DHT22;9385;48.380;9.744;2022-12-20T07:19:31;1.90;99.90
18513;DHT22;9385;48.380;9.744;2022-12-20T07:21:58;1.90;99.90
18513;DHT22;9385;48.380;9.744;2022-12-20T07:24:25;1.90;99.90
18513;DHT22;9385;48.380;9.744;2022-12-20T07:26:52;1.90;99.90
18513;DHT22;9385;48.380;9.744;2022-12-20T07:29:19;1.90;99.90
18513;DHT22;9385;48.380;9.744;2022-12-20T07:31:45;1.80;99.90
18513;DHT22;9385;48.380;9.744;2022-12-20T07:34:13;1.80;99.90
18513;DHT22;9385;48.380;9.744;2022-12-20T07:36:40;1.80;99.90
18513;DHT22;9385;48.380;9.744;2022-12-20T07:39:07;1.80;99.90
18513;DHT22;9385;48.380;9.744;2022-12-20T07:41:34;1.80;99.90
18513;DHT22;9385;48.380;9.744;2022-12-20T07:44:01;1.80;99.90
18513;DHT22;9385;48.380;9.744;2022-12-20T07:46:28;1.90;99.90
18513;DHT22;9385;48.380;9.744;2022-12-20T07:48:55;2.00;99.90
18513;DHT22;9385;48.380;9.744;2022-12-20T07:51:26;1.90;99.90
18513;DHT22;9385;48.380;9.744;2022-12-20T07:53:56;1.80;99.90
18513;DHT22;9385;48.380;9.744;2022-12-20T07:56:25;1.80;99.90
18513;DHT22;9385;48.380;9.744;2022-12-20T07:58:54;1.80;99.90
18513;DHT22;9385;48.380;9.744;2022-12-20T08:01:24;1.80;99.90
18513;DHT22;9385;48.380;9.744;2022-12-20T08:04:00;1.90;99.90
18513;DHT22;9385;48.380;9.744;2022-12-20T08:06:29;1.90;99.90
18513;DHT22;9385;48.380;9.744;2022-12-20T08:09:02;2.00;99.90
18513;DHT22;9385;48.380;9.744;2022-12-20T08:11:31;2.20;99.90
18513;DHT22;9385;48.380;9.744;2022-12-20T08:13:58;2.20;99.90
18513;DHT22;9385;48.380;9.744;2022-12-20T08:16:25;2.30;99.90
18513;DHT22;9385;48.380;9.744;2022-12-20T08:18:52;2.40;99.90
18513;DHT22;9385;48.380;9.744;2022-12-20T08:21:19;2.40;99.90
18513;DHT22;9385;48.380;9.744;2022-12-20T08:23:47;2.40;99.90
18513;DHT22;9385;48.380;9.744;2022-12-20T08:26:14;2.40;99.90
18513;DHT22;9385;48.380;9.744;2022-12-20T08:28:42;2.30;99.90
18513;DHT22;9385;48.380;9.744;2022-12-20T08:31:09;2.40;99.90
18513;DHT22;9385;48.380;9.744;2022-12-20T08:33:37;2.40;99.90
18513;DHT22;9385;48.380;9.744;2022-12-20T08:36:06;2.50;99.90
18513;DHT22;9385;48.380;9.744;2022-12-20T08:38:34;2.50;99.90
18513;DHT22;9385;48.380;9.744;2022-12-20T08:41:04;2.40;99.90
18513;DHT22;9385;48.380;9.744;2022-12-20T08:43:32;2.40;99.90
18513;DHT22;9385;48.380;9.744;2022-12-20T08:45:59;2.40;99.90
18513;DHT22;9385;48.380;9.744;2022-12-20T08:48:27;2.50;99.90
18513;DHT22;9385;48.380;9.744;2022-12-20T08:50:54;2.50;99.90
18513;DHT22;9385;48.380;9.744;2022-12-20T08:53:21;2.50;99.90
18513;DHT22;9385;48.380;9.744;2022-12-20T08:55:48;2.60;99.90
18513;DHT22;9385;48.380;9.744;2022-12-20T08:58:16;2.60;99.90
18513;DHT22;9385;48.380;9.744;2022-12-20T09:00:43;2.60;99.90
18513;DHT22;9385;48.380;9.744;2022-12-20T09:03:11;2.70;99.90
18513;DHT22;9385;48.380;9.744;2022-12-20T09:05:43;2.80;99.90
18513;DHT22;9385;48.380;9.744;2022-12-20T09:08:10;2.80;99.90
18513;DHT22;9385;48.380;9.744;2022-12-20T09:10:37;2.80;99.90
18513;DHT22;9385;48.380;9.744;2022-12-20T09:13:03;2.80;99.90
18513;DHT22;9385;48.380;9.744;2022-12-20T09:15:32;2.80;99.90
18513;DHT22;9385;48.380;9.744;2022-12-20T09:17:59;2.80;99.90
18513;DHT22;9385;48.380;9.744;2022-12-20T09:20:26;2.80;99.90
18513;DHT22;9385;48.380;9.744;2022-12-20T09:22:53;2.90;99.90
18513;DHT22;9385;48.380;9.744;2022-12-20T09:25:19;2.90;99.90
18513;DHT22;9385;48.380;9.744;2022-12-20T09:27:46;2.90;99.90
18513;DHT22;9385;48.380;9.744;2022-12-20T09:30:13;2.90;99.90
18513;DHT22;9385;48.380;9.744;2022-12-20T09:32:42;2.90;99.90
18513;DHT22;9385;48.380;9.744;2022-12-20T09:35:08;2.90;99.90
18513;DHT22;9385;48.380;9.744;2022-12-20T09:37:35;3.00;99.90
18513;DHT22;9385;48.380;9.744;2022-12-20T09:40:03;3.10;99.90
18513;DHT22;9385;48.380;9.744;2022-12-20T09:42:30;3.10;99.90
18513;DHT22;9385;48.380;9.744;2022-12-20T09:45:01;3.20;99.90
18513;DHT22;9385;48.380;9.744;2022-12-20T09:47:33;3.10;99.90
18513;DHT22;9385;48.380;9.744;2022-12-20T09:50:04;3.10;99.90
18513;DHT22;9385;48.380;9.744;2022-12-20T09:52:46;3.10;99.90
18513;DHT22;9385;48.380;9.744;2022-12-20T09:55:24;3.20;99.90
18513;DHT22;9385;48.380;9.744;2022-12-20T09:58:18;3.20;99.90
18513;DHT22;9385;48.380;9.744;2022-12-20T10:00:49;3.30;99.90
18513;DHT22;9385;48.380;9.744;2022-12-20T10:03:21;3.30;99.90
18513;DHT22;9385;48.380;9.744;2022-12-20T10:05:52;3.30;99.90
18513;DHT22;9385;48.380;9.744;2022-12-20T10:08:31;3.40;99.90
18513;DHT22;9385;48.380;9.744;2022-12-20T10:11:08;3.40;99.90
18513;DHT22;9385;48.380;9.744;2022-12-20T10:13:53;3.50;99.90
18513;DHT22;9385;48.380;9.744;2022-12-20T10:16:33;3.50;99.90
18513;DHT22;9385;48.380;9.744;2022-12-20T10:19:12;3.60;99.90
18513;DHT22;9385;48.380;9.744;2022-12-20T10:21:46;3.60;99.90
18513;DHT22;9385;48.380;9.744;2022-12-20T10:24:17;3.60;99.90
18513;DHT22;9385;48.380;9.744;2022-12-20T10:26:46;3.70;99.90
18513;DHT22;9385;48.380;9.744;2022-12-20T10:29:14;3.80;99.90
18513;DHT22;9385;48.380;9.744;2022-12-20T10:31:41;3.70;99.90
18513;DHT22;9385;48.380;9.744;2022-12-20T10:34:08;3.90;99.90
18513;DHT22;9385;48.380;9.744;2022-12-20T10:36:36;3.90;99.90
18513;DHT22;9385;48.380;9.744;2022-12-20T10:39:06;3.90;99.90
18513;DHT22;9385;48.380;9.744;2022-12-20T10:41:46;3.90;99.90
18513;DHT22;9385;48.380;9.744;2022-12-20T10:44:18;3.90;99.90
18513;DHT22;9385;48.380;9.744;2022-12-20T10:46:47;3.90;99.90
18513;DHT22;9385;48.380;9.744;2022-12-20T10:49:27;4.00;99.90
18513;DHT22;9385;48.380;9.744;2022-12-20T10:52:00;4.00;99.90
18513;DHT22;9385;48.380;9.744;2022-12-20T10:54:34;4.00;99.90
18513;DHT22;9385;48.380;9.744;2022-12-20T10:57:11;4.00;99.90
18513;DHT22;9385;48.380;9.744;2022-12-20T10:59:41;4.00;99.90
18513;DHT22;9385;48.380;9.744;2022-12-20T11:02:27;4.10;99.90
18513;DHT22;9385;48.380;9.744;2022-12-20T11:04:59;4.10;99.90
18513;DHT22;9385;48.380;9.744;2022-12-20T11:07:28;4.10;99.90
18513;DHT22;9385;48.380;9.744;2022-12-20T11:09:59;4.20;99.90
18513;DHT22;9385;48.380;9.744;2022-12-20T11:12:26;4.30;99.90
18513;DHT22;9385;48.380;9.744;2022-12-20T11:15:08;4.30;99.90
18513;DHT22;9385;48.380;9.744;2022-12-20T11:17:40;4.40;99.90
18513;DHT22;9385;48.380;9.744;2022-12-20T11:20:24;4.50;99.90
18513;DHT22;9385;48.380;9.744;2022-12-20T11:23:02;4.60;99.90
18513;DHT22;9385;48.380;9.744;2022-12-20T11:25:46;4.60;99.90
18513;DHT22;9385;48.380;9.744;2022-12-20T11:28:33;4.70;99.90
18513;DHT22;9385;48.380;9.744;2022-12-20T11:31:10;4.70;99.90
18513;DHT22;9385;48.380;9.744;2022-12-20T11:33:59;4.60;99.90
18513;DHT22;9385;48.380;9.744;2022-12-20T11:36:38;4.60;99.90
18513;DHT22;9385;48.380;9.744;2022-12-20T11:39:12;4.60;99.90
18513;DHT22;9385;48.380;9.744;2022-12-20T11:41:47;4.70;99.90
18513;DHT22;9385;48.380;9.744;2022-12-20T11:44:21;4.70;99.90
18513;DHT22;9385;48.380;9.744;2022-12-20T11:47:03;4.70;99.90
18513;DHT22;9385;48.380;9.744;2022-12-20T11:49:49;4.70;99.90
18513;DHT22;9385;48.380;9.744;2022-12-20T11:52:24;4.70;99.90
18513;DHT22;9385;48.380;9.744;2022-12-20T11:55:01;4.70;99.90
18513;DHT22;9385;48.380;9.744;2022-12-20T11:57:35;4.60;99.90
18513;DHT22;9385;48.380;9.744;2022-12-20T12:00:12;4.60;99.90
18513;DHT22;9385;48.380;9.744;2022-12-20T12:02:43;4.60;99.90
18513;DHT22;9385;48.380;9.744;2022-12-20T12:05:18;4.70;99.90
18513;DHT22;9385;48.380;9.744;2022-12-20T12:07:55;4.70;99.90
18513;DHT22;9385;48.380;9.744;2022-12-20T12:10:24;4.60;99.90
18513;DHT22;9385;48.380;9.744;2022-12-20T12:12:59;4.50;99.90
18513;DHT22;9385;48.380;9.744;2022-12-20T12:15:32;4.50;99.90
18513;DHT22;9385;48.380;9.744;2022-12-20T12:18:05;4.50;99.90
18513;DHT22;9385;48.380;9.744;2022-12-20T12:20:39;4.40;99.90
18513;DHT22;9385;48.380;9.744;2022-12-20T12:23:15;4.50;99.90
18513;DHT22;9385;48.380;9.744;2022-12-20T12:25:42;4.50;99.90
18513;DHT22;9385;48.380;9.744;2022-12-20T12:28:12;4.50;99.90
18513;DHT22;9385;48.380;9.744;2022-12-20T12:30:42;4.50;99.90
18513;DHT22;9385;48.380;9.744;2022-12-20T12:33:14;4.50;99.90
18513;DHT22;9385;48.380;9.744;2022-12-20T12:36:10;4.50;99.90
18513;DHT22;9385;48.380;9.744;2022-12-20T12:42:08;4.70;99.90
18513;DHT22;9385;48.380;9.744;2022-12-20T12:44:47;4.70;99.90
18513;DHT22;9385;48.380;9.744;2022-12-20T12:47:19;4.70;99.90
18513;DHT22;9385;48.380;9.744;2022-12-20T12:49:49;4.60;99.90
18513;DHT22;9385;48.380;9.744;2022-12-20T12:52:38;4.60;99.90
18513;DHT22;9385;48.380;9.744;2022-12-20T12:55:34;4.50;99.90
18513;DHT22;9385;48.380;9.744;2022-12-20T13:00:56;4.50;99.90
18513;DHT22;9385;48.380;9.744;2022-12-20T13:03:44;4.50;99.90
18513;DHT22;9385;48.380;9.744;2022-12-20T13:06:52;4.60;99.90
18513;DHT22;9385;48.380;9.744;2022-12-20T13:09:36;4.70;99.90
18513;DHT22;9385;48.380;9.744;2022-12-20T13:15:46;4.80;99.90
18513;DHT22;9385;48.380;9.744;2022-12-20T13:18:27;4.70;99.90
18513;DHT22;9385;48.380;9.744;2022-12-20T13:21:17;4.60;99.90
18513;DHT22;9385;48.380;9.744;2022-12-20T13:23:45;4.60;99.90
18513;DHT22;9385;48.380;9.744;2022-12-20T13:26:46;4.60;99.90
18513;DHT22;9385;48.380;9.744;2022-12-20T13:29:23;4.60;99.90
18513;DHT22;9385;48.380;9.744;2022-12-20T13:31:51;4.60;99.90
18513;DHT22;9385;48.380;9.744;2022-12-20T13:34:38;4.60;99.90
18513;DHT22;9385;48.380;9.744;2022-12-20T13:37:27;4.50;99.90
18513;DHT22;9385;48.380;9.744;2022-12-20T13:39:54;4.60;99.90
18513;DHT22;9385;48.380;9.744;2022-12-20T13:42:39;4.60;99.90
18513;DHT22;9385;48.380;9.744;2022-12-20T13:45:11;4.60;99.90
18513;DHT22;9385;48.380;9.744;2022-12-20T13:47:46;4.50;99.90
18513;DHT22;9385;48.380;9.744;2022-12-20T13:50:27;4.50;99.90
18513;DHT22;9385;48.380;9.744;2022-12-20T13:52:56;4.50;99.90
18513;DHT22;9385;48.380;9.744;2022-12-20T13:55:30;4.40;99.90
18513;DHT22;9385;48.380;9.744;2022-12-20T13:57:57;4.40;99.90
18513;DHT22;9385;48.380;9.744;2022-12-20T14:00:29;4.40;99.90
18513;DHT22;9385;48.380;9.744;2022-12-20T14:02:56;4.40;99.90
18513;DHT22;9385;48.380;9.744;2022-12-20T14:05:26;4.30;99.90
18513;DHT22;9385;48.380;9.744;2022-12-20T14:07:58;4.30;99.90
18513;DHT22;9385;48.380;9.744;2022-12-20T14:10:27;4.30;99.90
18513;DHT22;9385;48.380;9.744;2022-12-20T14:12:55;4.30;99.90
18513;DHT22;9385;48.380;9.744;2022-12-20T14:15:26;4.40;99.90
18513;DHT22;9385;48.380;9.744;2022-12-20T14:17:53;4.30;99.90
18513;DHT22;9385;48.380;9.744;2022-12-20T14:20:23;4.30;99.90
18513;DHT22;9385;48.380;9.744;2022-12-20T14:22:56;4.20;99.90
18513;DHT22;9385;48.380;9.744;2022-12-20T14:25:31;4.20;99.90
18513;DHT22;9385;48.380;9.744;2022-12-20T14:28:02;4.20;99.90
18513;DHT22;9385;48.380;9.744;2022-12-20T14:30:31;4.10;99.90
18513;DHT22;9385;48.380;9.744;2022-12-20T14:33:00;4.10;99.90
18513;DHT22;9385;48.380;9.744;2022-12-20T14:35:27;4.20;99.90
18513;DHT22;9385;48.380;9.744;2022-12-20T14:37:57;4.20;99.90
18513;DHT22;9385;48.380;9.744;2022-12-20T14:40:26;4.00;99.90
18513;DHT22;9385;48.380;9.744;2022-12-20T14:42:53;4.30;99.90
18513;DHT22;9385;48.380;9.744;2022-12-20T14:45:24;4.20;99.90
18513;DHT22;9385;48.380;9.744;2022-12-20T14:47:57;4.30;99.90
18513;DHT22;9385;48.380;9.744;2022-12-20T14:50:28;4.30;99.90
18513;DHT22;9385;48.380;9.744;2022-12-20T14:52:56;4.40;99.90
18513;DHT22;9385;48.380;9.744;2022-12-20T14:55:27;4.40;99.90
18513;DHT22;9385;48.380;9.744;2022-12-20T14:57:55;4.40;99.90
18513;DHT22;9385;48.380;9.744;2022-12-20T15:00:24;4.30;99.90
18513;DHT22;9385;48.380;9.744;2022-12-20T15:03:00;4.30;99.90
18513;DHT22;9385;48.380;9.744;2022-12-20T15:05:46;4.40;99.90
18513;DHT22;9385;48.380;9.744;2022-12-20T15:08:17;4.40;99.90
18513;DHT22;9385;48.380;9.744;2022-12-20T15:10:56;4.40;99.90
18513;DHT22;9385;48.380;9.744;2022-12-20T15:13:27;4.30;99.90
18513;DHT22;9385;48.380;9.744;2022-12-20T15:15:57;4.30;99.90
18513;DHT22;9385;48.380;9.744;2022-12-20T15:18:24;4.30;99.90
18513;DHT22;9385;48.380;9.744;2022-12-20T15:20:59;4.20;99.90
18513;DHT22;9385;48.380;9.744;2022-12-20T15:23:28;4.30;99.90
18513;DHT22;9385;48.380;9.744;2022-12-20T15:25:55;4.30;99.90
18513;DHT22;9385;48.380;9.744;2022-12-20T15:28:23;4.20;99.90
18513;DHT22;9385;48.380;9.744;2022-12-20T15:30:51;4.30;99.90
18513;DHT22;9385;48.380;9.744;2022-12-20T15:33:21;4.40;99.90
18513;DHT22;9385;48.380;9.744;2022-12-20T15:35:49;4.40;99.90
18513;DHT22;9385;48.380;9.744;2022-12-20T15:38:18;4.40;99.90
18513;DHT22;9385;48.380;9.744;2022-12-20T15:40:48;4.40;99.90
18513;DHT22;9385;48.380;9.744;2022-12-20T15:43:18;4.50;99.90
18513;DHT22;9385;48.380;9.744;2022-12-20T15:45:47;4.50;99.90
18513;DHT22;9385;48.380;9.744;2022-12-20T15:48:16;4.50;99.90
18513;DHT22;9385;48.380;9.744;2022-12-20T15:50:47;4.60;99.90
18513;DHT22;9385;48.380;9.744;2022-12-20T15:53:16;4.60;99.90
18513;DHT22;9385;48.380;9.744;2022-12-20T15:55:51;4.60;99.90
18513;DHT22;9385;48.380;9.744;2022-12-20T15:58:18;4.60;99.90
18513;DHT22;9385;48.380;9.744;2022-12-20T16:00:46;4.50;99.90
18513;DHT22;9385;48.380;9.744;2022-12-20T16:03:15;4.50;99.90
18513;DHT22;9385;48.380;9.744;2022-12-20T16:05:42;4.40;99.90
18513;DHT22;9385;48.380;9.744;2022-12-20T16:08:10;4.40;99.90
18513;DHT22;9385;48.380;9.744;2022-12-20T16:10:37;4.40;99.90
18513;DHT22;9385;48.380;9.744;2022-12-20T16:13:05;4.20;99.90
18513;DHT22;9385;48.380;9.744;2022-12-20T16:15:33;4.20;99.90
18513;DHT22;9385;48.380;9.744;2022-12-20T16:18:00;4.10;99.90
18513;DHT22;9385;48.380;9.744;2022-12-20T16:20:26;4.30;99.90
18513;DHT22;9385;48.380;9.744;2022-12-20T16:22:54;4.20;99.90
18513;DHT22;9385;48.380;9.744;2022-12-20T16:25:26;4.30;99.90
18513;DHT22;9385;48.380;9.744;2022-12-20T16:27:53;4.20;99.90
18513;DHT22;9385;48.380;9.744;2022-12-20T16:30:21;4.20;99.90
18513;DHT22;9385;48.380;9.744;2022-12-20T16:32:48;4.20;99.90